sensor_id;sensor_type;location;lat;lon;timestamp;pressure;altitude;pressure_sealevel;temperature;humidity
32735;BME280;19112;51.076;3.706;2023-07-02T00:01:46;100743.19;;;19.73;76.62
32735;BME280;19112;51.076;3.706;2023-07-02T00:04:13;100752.94;;;19.76;76.43
32735;BME280;19112;51.076;3.706;2023-07-02T00:06:48;100708.69;;;19.47;76.54
32735;BME280;19112;51.076;3.706;2023-07-02T00:09:15;100602.53;;;18.84;75.30
32735;BME280;19112;51.076;3.706;2023-07-02T00:11:44;100629.94;;;19.03;75.49
32735;BME280;19112;51.076;3.706;2023-07-02T00:14:11;100758.25;;;19.76;75.53
32735;BME280;19112;51.076;3.706;2023-07-02T00:16:45;100760.00;;;19.80;76.58
32735;BME280;19112;51.076;3.706;2023-07-02T00:19:14;100799.88;;;19.98;75.97
32735;BME280;19112;51.076;3.706;2023-07-02T00:21:41;100729.94;;;19.62;74.98
32735;BME280;19112;51.076;3.706;2023-07-02T00:24:08;100723.72;;;19.56;75.20
32735;BME280;19112;51.076;3.706;2023-07-02T00:26:36;100726.38;;;19.62;75.93
32735;BME280;19112;51.076;3.706;2023-07-02T00:29:03;100808.75;;;19.99;75.46
32735;BME280;19112;51.076;3.706;2023-07-02T00:31:29;100662.66;;;19.22;76.74
32735;BME280;19112;51.076;3.706;2023-07-02T00:33:55;100724.59;;;19.58;75.96
32735;BME280;19112;51.076;3.706;2023-07-02T00:36:21;100741.47;;;19.63;76.74
32735;BME280;19112;51.076;3.706;2023-07-02T00:38:49;100651.19;;;19.14;76.76
32735;BME280;19112;51.076;3.706;2023-07-02T00:41:16;100672.41;;;19.25;76.31
32735;BME280;19112;51.076;3.706;2023-07-02T00:43:42;100707.81;;;19.45;78.18
32735;BME280;19112;51.076;3.706;2023-07-02T00:46:15;100653.84;;;19.14;74.92
32735;BME280;19112;51.076;3.706;2023-07-02T00:48:44;100598.13;;;18.79;76.35
32735;BME280;19112;51.076;3.706;2023-07-02T00:51:24;100593.69;;;18.82;77.79
32735;BME280;19112;51.076;3.706;2023-07-02T00:53:53;100705.25;;;19.28;78.51
32735;BME280;19112;51.076;3.706;2023-07-02T00:56:21;100792.84;;;19.88;78.08
32735;BME280;19112;51.076;3.706;2023-07-02T00:58:50;100662.75;;;19.08;77.78
32735;BME280;19112;51.076;3.706;2023-07-02T01:01:24;100782.28;;;19.65;77.85
32735;BME280;19112;51.076;3.706;2023-07-02T01:03:52;100812.41;;;19.84;78.11
32735;BME280;19112;51.076;3.706;2023-07-02T01:06:23;100728.28;;;19.35;77.41
32735;BME280;19112;51.076;3.706;2023-07-02T01:08:57;100836.34;;;19.90;76.18
32735;BME280;19112;51.076;3.706;2023-07-02T01:11:36;100819.47;;;19.86;77.39
32735;BME280;19112;51.076;3.706;2023-07-02T01:14:17;100822.19;;;19.79;79.24
32735;BME280;19112;51.076;3.706;2023-07-02T01:16:44;100820.44;;;19.76;78.24
32735;BME280;19112;51.076;3.706;2023-07-02T01:19:19;100607.03;;;18.58;77.31
32735;BME280;19112;51.076;3.706;2023-07-02T01:21:48;100823.09;;;19.75;76.80
32735;BME280;19112;51.076;3.706;2023-07-02T01:24:15;100831.97;;;19.74;77.27
32735;BME280;19112;51.076;3.706;2023-07-02T01:26:42;100826.66;;;19.69;77.42
32735;BME280;19112;51.076;3.706;2023-07-02T01:29:19;100754.94;;;19.23;79.22
32735;BME280;19112;51.076;3.706;2023-07-02T01:31:47;100754.03;;;19.27;79.11
32735;BME280;19112;51.076;3.706;2023-07-02T01:34:13;100827.59;;;19.63;80.63
32735;BME280;19112;51.076;3.706;2023-07-02T01:36:40;100809.84;;;19.53;80.33
32735;BME280;19112;51.076;3.706;2023-07-02T01:39:06;100658.44;;;18.63;80.79
32735;BME280;19112;51.076;3.706;2023-07-02T01:41:41;100755.00;;;19.13;81.03
32735;BME280;19112;51.076;3.706;2023-07-02T01:44:08;100832.94;;;19.50;81.45
32735;BME280;19112;51.076;3.706;2023-07-02T01:46:34;100786.91;;;19.19;82.46
32735;BME280;19112;51.076;3.706;2023-07-02T01:48:59;100833.84;;;19.43;82.98
32735;BME280;19112;51.076;3.706;2023-07-02T01:51:25;100833.88;;;19.40;83.43
32735;BME280;19112;51.076;3.706;2023-07-02T01:53:51;100833.84;;;19.38;83.67
32735;BME280;19112;51.076;3.706;2023-07-02T01:56:17;100551.44;;;17.74;82.85
32735;BME280;19112;51.076;3.706;2023-07-02T01:58:43;100749.72;;;18.88;83.79
32735;BME280;19112;51.076;3.706;2023-07-02T02:01:08;100827.69;;;19.28;84.37
32735;BME280;19112;51.076;3.706;2023-07-02T02:03:34;100689.50;;;18.49;84.90
32735;BME280;19112;51.076;3.706;2023-07-02T02:06:00;100506.31;;;17.33;84.79
32735;BME280;19112;51.076;3.706;2023-07-02T02:08:26;100825.94;;;19.18;85.22
32735;BME280;19112;51.076;3.706;2023-07-02T02:10:52;100826.84;;;19.14;85.72
32735;BME280;19112;51.076;3.706;2023-07-02T02:13:18;100768.38;;;18.79;85.94
32735;BME280;19112;51.076;3.706;2023-07-02T02:15:43;100602.75;;;17.84;85.86
32735;BME280;19112;51.076;3.706;2023-07-02T02:18:09;100835.69;;;19.19;86.30
32735;BME280;19112;51.076;3.706;2023-07-02T02:20:35;100833.91;;;19.24;86.23
32735;BME280;19112;51.076;3.706;2023-07-02T02:23:01;100772.81;;;18.75;86.37
32735;BME280;19112;51.076;3.706;2023-07-02T02:25:27;100841.91;;;19.24;86.90
32735;BME280;19112;51.076;3.706;2023-07-02T02:27:53;100713.44;;;18.46;86.92
32735;BME280;19112;51.076;3.706;2023-07-02T02:30:19;100847.19;;;19.30;85.93
32735;BME280;19112;51.076;3.706;2023-07-02T02:32:45;100845.44;;;19.29;86.14
32735;BME280;19112;51.076;3.706;2023-07-02T02:35:11;100852.50;;;19.32;85.93
32735;BME280;19112;51.076;3.706;2023-07-02T02:37:38;100678.88;;;18.32;85.67
32735;BME280;19112;51.076;3.706;2023-07-02T02:40:07;100848.97;;;19.27;85.54
32735;BME280;19112;51.076;3.706;2023-07-02T02:42:35;100475.31;;;17.09;85.19
32735;BME280;19112;51.076;3.706;2023-07-02T02:45:02;100524.88;;;17.29;84.28
32735;BME280;19112;51.076;3.706;2023-07-02T02:47:28;100855.19;;;19.23;84.86
32735;BME280;19112;51.076;3.706;2023-07-02T02:49:54;100747.09;;;18.56;85.29
32735;BME280;19112;51.076;3.706;2023-07-02T02:52:19;100776.38;;;18.76;83.90
32735;BME280;19112;51.076;3.706;2023-07-02T02:54:46;100820.66;;;19.00;83.54
32735;BME280;19112;51.076;3.706;2023-07-02T02:57:12;100863.22;;;19.14;84.50
32735;BME280;19112;51.076;3.706;2023-07-02T02:59:39;100821.56;;;18.83;84.99
32735;BME280;19112;51.076;3.706;2023-07-02T03:02:04;100859.69;;;19.07;85.00
32735;BME280;19112;51.076;3.706;2023-07-02T03:04:30;100869.41;;;19.11;85.05
32735;BME280;19112;51.076;3.706;2023-07-02T03:06:56;100867.66;;;19.07;84.72
32735;BME280;19112;51.076;3.706;2023-07-02T03:09:22;100590.34;;;17.47;84.48
32735;BME280;19112;51.076;3.706;2023-07-02T03:11:48;100872.09;;;19.13;83.59
32735;BME280;19112;51.076;3.706;2023-07-02T03:14:14;100739.13;;;18.35;83.74
32735;BME280;19112;51.076;3.706;2023-07-02T03:16:43;100598.28;;;17.40;83.51
32735;BME280;19112;51.076;3.706;2023-07-02T03:19:11;100874.75;;;19.09;84.25
32735;BME280;19112;51.076;3.706;2023-07-02T03:21:36;100842.84;;;18.90;83.88
32735;BME280;19112;51.076;3.706;2023-07-02T03:24:02;100874.75;;;19.08;84.28
32735;BME280;19112;51.076;3.706;2023-07-02T03:26:28;100881.84;;;19.10;83.73
32735;BME280;19112;51.076;3.706;2023-07-02T03:28:54;100828.66;;;18.86;83.91
32735;BME280;19112;51.076;3.706;2023-07-02T03:31:20;100888.03;;;19.11;84.89
32735;BME280;19112;51.076;3.706;2023-07-02T03:33:46;100786.97;;;18.56;82.08
32735;BME280;19112;51.076;3.706;2023-07-02T03:36:11;100880.97;;;19.08;83.03
32735;BME280;19112;51.076;3.706;2023-07-02T03:38:37;100888.97;;;19.07;84.02
32735;BME280;19112;51.076;3.706;2023-07-02T03:41:04;100880.09;;;19.08;82.77
32735;BME280;19112;51.076;3.706;2023-07-02T03:43:30;100822.44;;;18.69;83.25
32735;BME280;19112;51.076;3.706;2023-07-02T03:45:57;100890.72;;;19.08;83.88
32735;BME280;19112;51.076;3.706;2023-07-02T03:48:23;100670.94;;;17.77;84.35
32735;BME280;19112;51.076;3.706;2023-07-02T03:50:49;100886.28;;;19.04;84.12
32735;BME280;19112;51.076;3.706;2023-07-02T03:53:15;100891.63;;;19.07;83.19
32735;BME280;19112;51.076;3.706;2023-07-02T03:55:41;100891.59;;;19.04;84.28
32735;BME280;19112;51.076;3.706;2023-07-02T03:58:08;100791.41;;;18.42;84.29
32735;BME280;19112;51.076;3.706;2023-07-02T04:00:35;100817.09;;;18.58;84.43
32735;BME280;19112;51.076;3.706;2023-07-02T04:03:01;100906.69;;;19.08;84.37
32735;BME280;19112;51.076;3.706;2023-07-02T04:05:27;100840.16;;;18.65;84.54
32735;BME280;19112;51.076;3.706;2023-07-02T04:07:54;100848.19;;;18.70;83.97
32735;BME280;19112;51.076;3.706;2023-07-02T04:10:20;100777.25;;;18.33;83.07
32735;BME280;19112;51.076;3.706;2023-07-02T04:12:46;100908.44;;;19.10;84.05
32735;BME280;19112;51.076;3.706;2023-07-02T04:15:11;100924.44;;;19.14;83.14
32735;BME280;19112;51.076;3.706;2023-07-02T04:17:37;100906.69;;;19.09;83.90
32735;BME280;19112;51.076;3.706;2023-07-02T04:20:03;100798.50;;;18.55;83.39
32735;BME280;19112;51.076;3.706;2023-07-02T04:22:30;100912.00;;;19.16;84.23
32735;BME280;19112;51.076;3.706;2023-07-02T04:24:56;100659.41;;;17.73;84.34
32735;BME280;19112;51.076;3.706;2023-07-02T04:27:22;100918.22;;;19.24;84.73
32735;BME280;19112;51.076;3.706;2023-07-02T04:29:48;100917.28;;;19.32;84.61
32735;BME280;19112;51.076;3.706;2023-07-02T04:32:13;100728.50;;;18.25;82.86
32735;BME280;19112;51.076;3.706;2023-07-02T04:34:39;100928.81;;;19.42;83.01
32735;BME280;19112;51.076;3.706;2023-07-02T04:37:05;100844.63;;;18.92;82.86
32735;BME280;19112;51.076;3.706;2023-07-02T04:39:31;100321.41;;;15.91;82.02
32735;BME280;19112;51.076;3.706;2023-07-02T04:41:57;100958.13;;;19.50;81.01
32735;BME280;19112;51.076;3.706;2023-07-02T04:44:24;100943.88;;;19.54;79.89
32735;BME280;19112;51.076;3.706;2023-07-02T04:47:00;100817.13;;;18.82;80.41
32735;BME280;19112;51.076;3.706;2023-07-02T04:49:26;100622.19;;;17.63;81.04
32735;BME280;19112;51.076;3.706;2023-07-02T04:51:53;100912.88;;;19.36;81.49
32735;BME280;19112;51.076;3.706;2023-07-02T04:54:21;100710.78;;;18.26;80.99
32735;BME280;19112;51.076;3.706;2023-07-02T04:56:47;100709.91;;;18.30;79.89
32735;BME280;19112;51.076;3.706;2023-07-02T04:59:14;100869.38;;;19.26;80.17
32735;BME280;19112;51.076;3.706;2023-07-02T05:01:41;100957.16;;;19.84;80.12
32735;BME280;19112;51.076;3.706;2023-07-02T05:04:09;100565.59;;;17.74;79.83
32735;BME280;19112;51.076;3.706;2023-07-02T05:06:36;100557.66;;;17.74;79.71
32735;BME280;19112;51.076;3.706;2023-07-02T05:09:02;100959.75;;;20.13;79.36
32735;BME280;19112;51.076;3.706;2023-07-02T05:11:28;100962.34;;;20.24;76.68
32735;BME280;19112;51.076;3.706;2023-07-02T05:13:54;100975.66;;;20.26;77.32
32735;BME280;19112;51.076;3.706;2023-07-02T05:16:22;100700.09;;;18.73;76.36
32735;BME280;19112;51.076;3.706;2023-07-02T05:18:48;100855.13;;;19.66;76.42
32735;BME280;19112;51.076;3.706;2023-07-02T05:21:18;100938.38;;;20.21;76.96
32735;BME280;19112;51.076;3.706;2023-07-02T05:23:44;100976.44;;;20.45;77.25
32735;BME280;19112;51.076;3.706;2023-07-02T05:26:10;100922.38;;;20.18;76.40
32735;BME280;19112;51.076;3.706;2023-07-02T05:28:36;100981.72;;;20.63;76.57
32735;BME280;19112;51.076;3.706;2023-07-02T05:31:02;100885.97;;;20.08;76.05
32735;BME280;19112;51.076;3.706;2023-07-02T05:33:27;100888.66;;;20.08;74.57
32735;BME280;19112;51.076;3.706;2023-07-02T05:35:53;101002.13;;;20.72;74.18
32735;BME280;19112;51.076;3.706;2023-07-02T05:38:19;100994.94;;;20.81;70.78
32735;BME280;19112;51.076;3.706;2023-07-02T05:40:45;101000.25;;;20.89;71.40
32735;BME280;19112;51.076;3.706;2023-07-02T05:43:12;100961.28;;;20.59;72.13
32735;BME280;19112;51.076;3.706;2023-07-02T05:45:37;101000.25;;;20.87;72.32
32735;BME280;19112;51.076;3.706;2023-07-02T05:48:03;100983.34;;;20.90;72.41
32735;BME280;19112;51.076;3.706;2023-07-02T05:50:29;100850.34;;;20.27;71.24
32735;BME280;19112;51.076;3.706;2023-07-02T05:52:55;100995.56;;;21.20;71.32
32735;BME280;19112;51.076;3.706;2023-07-02T05:55:21;100999.97;;;21.24;71.31
32735;BME280;19112;51.076;3.706;2023-07-02T05:57:47;100924.69;;;20.81;70.41
32735;BME280;19112;51.076;3.706;2023-07-02T06:00:13;101002.56;;;21.35;71.16
32735;BME280;19112;51.076;3.706;2023-07-02T06:02:39;101009.56;;;21.53;70.04
32735;BME280;19112;51.076;3.706;2023-07-02T06:05:05;100929.72;;;21.17;68.95
32735;BME280;19112;51.076;3.706;2023-07-02T06:07:31;100900.38;;;21.16;66.31
32735;BME280;19112;51.076;3.706;2023-07-02T06:09:57;101001.19;;;21.89;67.62
32735;BME280;19112;51.076;3.706;2023-07-02T06:12:23;101008.13;;;22.03;68.15
32735;BME280;19112;51.076;3.706;2023-07-02T06:14:49;101019.66;;;22.08;66.83
32735;BME280;19112;51.076;3.706;2023-07-02T06:17:15;100938.97;;;21.74;66.50
32735;BME280;19112;51.076;3.706;2023-07-02T06:19:41;101014.28;;;22.09;65.69
32735;BME280;19112;51.076;3.706;2023-07-02T06:22:07;100887.69;;;21.39;64.73
32735;BME280;19112;51.076;3.706;2023-07-02T06:24:33;101019.56;;;22.20;64.14
32735;BME280;19112;51.076;3.706;2023-07-02T06:26:59;101019.53;;;22.23;64.15
32735;BME280;19112;51.076;3.706;2023-07-02T06:29:24;100765.44;;;20.81;62.99
32735;BME280;19112;51.076;3.706;2023-07-02T06:31:51;100987.44;;;22.23;63.45
32735;BME280;19112;51.076;3.706;2023-07-02T06:34:17;100969.69;;;22.17;63.92
32735;BME280;19112;51.076;3.706;2023-07-02T06:36:43;100888.72;;;22.02;63.56
32735;BME280;19112;51.076;3.706;2023-07-02T06:39:09;101029.22;;;23.01;60.85
32735;BME280;19112;51.076;3.706;2023-07-02T06:41:35;101037.81;;;23.21;61.43
32735;BME280;19112;51.076;3.706;2023-07-02T06:44:02;100835.81;;;22.25;56.57
32735;BME280;19112;51.076;3.706;2023-07-02T06:46:29;101043.44;;;23.59;57.62
32735;BME280;19112;51.076;3.706;2023-07-02T06:48:55;100807.22;;;22.30;57.35
32735;BME280;19112;51.076;3.706;2023-07-02T06:51:21;100871.50;;;22.81;58.06
32735;BME280;19112;51.076;3.706;2023-07-02T06:53:48;101004.75;;;23.75;57.59
32735;BME280;19112;51.076;3.706;2023-07-02T06:56:14;100994.94;;;23.74;52.34
32735;BME280;19112;51.076;3.706;2023-07-02T06:58:43;100877.25;;;23.12;55.21
32735;BME280;19112;51.076;3.706;2023-07-02T07:01:09;100825.88;;;22.89;55.04
32735;BME280;19112;51.076;3.706;2023-07-02T07:03:35;101062.03;;;24.19;50.73
32735;BME280;19112;51.076;3.706;2023-07-02T07:06:01;100854.25;;;22.99;51.49
32735;BME280;19112;51.076;3.706;2023-07-02T07:08:27;101060.88;;;24.32;53.80
32735;BME280;19112;51.076;3.706;2023-07-02T07:10:53;101058.03;;;24.41;52.56
32735;BME280;19112;51.076;3.706;2023-07-02T07:13:19;100999.44;;;24.18;49.99
32735;BME280;19112;51.076;3.706;2023-07-02T07:15:44;100993.16;;;24.18;48.02
32735;BME280;19112;51.076;3.706;2023-07-02T07:18:10;101066.44;;;24.68;49.10
32735;BME280;19112;51.076;3.706;2023-07-02T07:20:38;100997.47;;;24.26;51.37
32735;BME280;19112;51.076;3.706;2023-07-02T07:23:05;100915.34;;;23.77;51.80
32735;BME280;19112;51.076;3.706;2023-07-02T07:25:31;101014.91;;;24.50;51.25
32735;BME280;19112;51.076;3.706;2023-07-02T07:27:59;101081.97;;;24.94;50.86
32735;BME280;19112;51.076;3.706;2023-07-02T07:30:25;101070.94;;;25.07;50.47
32735;BME280;19112;51.076;3.706;2023-07-02T07:32:52;101079.53;;;25.23;46.82
32735;BME280;19112;51.076;3.706;2023-07-02T07:35:22;101088.44;;;25.25;48.98
32735;BME280;19112;51.076;3.706;2023-07-02T07:37:48;101066.59;;;25.00;47.92
32735;BME280;19112;51.076;3.706;2023-07-02T07:40:15;100750.13;;;23.27;48.72
32735;BME280;19112;51.076;3.706;2023-07-02T07:42:41;101098.28;;;25.26;49.13
32735;BME280;19112;51.076;3.706;2023-07-02T07:45:10;101097.16;;;25.35;49.03
32735;BME280;19112;51.076;3.706;2023-07-02T07:47:36;101088.25;;;25.33;47.49
32735;BME280;19112;51.076;3.706;2023-07-02T07:50:03;100943.19;;;24.55;47.91
32735;BME280;19112;51.076;3.706;2023-07-02T07:52:34;101088.31;;;25.31;47.47
32735;BME280;19112;51.076;3.706;2023-07-02T07:55:00;101086.69;;;25.23;45.87
32735;BME280;19112;51.076;3.706;2023-07-02T07:57:26;100928.44;;;24.33;46.14
32735;BME280;19112;51.076;3.706;2023-07-02T07:59:51;101021.31;;;24.82;45.48
32735;BME280;19112;51.076;3.706;2023-07-02T08:02:17;101092.47;;;25.04;46.42
32735;BME280;19112;51.076;3.706;2023-07-02T08:04:43;101100.25;;;25.18;46.70
32735;BME280;19112;51.076;3.706;2023-07-02T08:07:09;100918.59;;;24.35;45.88
32735;BME280;19112;51.076;3.706;2023-07-02T08:09:35;101087.66;;;25.20;47.43
32735;BME280;19112;51.076;3.706;2023-07-02T08:12:00;101025.13;;;24.73;46.99
32735;BME280;19112;51.076;3.706;2023-07-02T08:14:26;101080.84;;;25.04;48.04
32735;BME280;19112;51.076;3.706;2023-07-02T08:16:52;100999.28;;;24.26;47.82
32735;BME280;19112;51.076;3.706;2023-07-02T08:19:18;100979.53;;;23.87;47.38
32735;BME280;19112;51.076;3.706;2023-07-02T08:21:46;100986.13;;;23.67;49.92
32735;BME280;19112;51.076;3.706;2023-07-02T08:24:12;100903.03;;;23.18;49.36
32735;BME280;19112;51.076;3.706;2023-07-02T08:26:38;100971.69;;;23.74;50.76
32735;BME280;19112;51.076;3.706;2023-07-02T08:29:04;101091.88;;;24.48;48.58
32735;BME280;19112;51.076;3.706;2023-07-02T08:31:30;101031.09;;;23.99;48.03
32735;BME280;19112;51.076;3.706;2023-07-02T08:33:56;101001.78;;;23.92;46.50
32735;BME280;19112;51.076;3.706;2023-07-02T08:36:21;101088.94;;;24.62;47.85
32735;BME280;19112;51.076;3.706;2023-07-02T08:38:47;101114.78;;;24.68;47.84
32735;BME280;19112;51.076;3.706;2023-07-02T08:41:13;101056.75;;;24.59;48.21
32735;BME280;19112;51.076;3.706;2023-07-02T08:43:39;101079.91;;;24.66;48.76
32735;BME280;19112;51.076;3.706;2023-07-02T08:46:06;101101.69;;;24.93;46.67
32735;BME280;19112;51.076;3.706;2023-07-02T08:48:34;101100.59;;;25.01;47.11
32735;BME280;19112;51.076;3.706;2023-07-02T08:51:00;100988.94;;;24.51;45.01
32735;BME280;19112;51.076;3.706;2023-07-02T08:53:28;101056.63;;;25.05;46.32
32735;BME280;19112;51.076;3.706;2023-07-02T08:56:03;101069.03;;;25.13;45.73
32735;BME280;19112;51.076;3.706;2023-07-02T08:58:29;101023.91;;;24.88;45.29
32735;BME280;19112;51.076;3.706;2023-07-02T09:01:12;101012.22;;;24.89;43.99
32735;BME280;19112;51.076;3.706;2023-07-02T09:03:39;100976.66;;;24.39;44.35
32735;BME280;19112;51.076;3.706;2023-07-02T09:06:08;101104.72;;;25.18;46.25
32735;BME280;19112;51.076;3.706;2023-07-02T09:08:34;101068.97;;;25.16;46.28
32735;BME280;19112;51.076;3.706;2023-07-02T09:11:15;101108.84;;;25.34;44.70
32735;BME280;19112;51.076;3.706;2023-07-02T09:13:52;100848.34;;;23.76;43.29
32735;BME280;19112;51.076;3.706;2023-07-02T09:16:33;101073.63;;;25.07;43.96
32735;BME280;19112;51.076;3.706;2023-07-02T09:19:09;101010.84;;;24.71;44.32
32735;BME280;19112;51.076;3.706;2023-07-02T09:21:38;101115.91;;;25.38;45.70
32735;BME280;19112;51.076;3.706;2023-07-02T09:24:21;101119.19;;;25.51;44.00
32735;BME280;19112;51.076;3.706;2023-07-02T09:26:52;100854.63;;;24.15;42.15
32735;BME280;19112;51.076;3.706;2023-07-02T09:29:31;101114.25;;;25.70;40.35
32735;BME280;19112;51.076;3.706;2023-07-02T09:32:03;101075.88;;;25.61;39.44
32735;BME280;19112;51.076;3.706;2023-07-02T09:34:35;100987.56;;;25.11;39.88
32735;BME280;19112;51.076;3.706;2023-07-02T09:37:03;101088.75;;;25.49;39.55
32735;BME280;19112;51.076;3.706;2023-07-02T09:39:35;101079.56;;;25.22;39.20
32735;BME280;19112;51.076;3.706;2023-07-02T09:42:05;101011.44;;;24.84;40.38
32735;BME280;19112;51.076;3.706;2023-07-02T09:44:33;101122.72;;;25.53;39.96
32735;BME280;19112;51.076;3.706;2023-07-02T09:47:07;101055.53;;;25.16;39.17
32735;BME280;19112;51.076;3.706;2023-07-02T09:49:43;101042.41;;;25.00;40.18
32735;BME280;19112;51.076;3.706;2023-07-02T09:52:11;101024.75;;;24.90;38.96
32735;BME280;19112;51.076;3.706;2023-07-02T09:54:39;101091.59;;;25.04;37.51
32735;BME280;19112;51.076;3.706;2023-07-02T09:57:06;100867.13;;;23.74;36.34
32735;BME280;19112;51.076;3.706;2023-07-02T09:59:33;100925.88;;;23.85;38.22
32735;BME280;19112;51.076;3.706;2023-07-02T10:01:59;101138.50;;;24.89;36.94
32735;BME280;19112;51.076;3.706;2023-07-02T10:04:25;101137.44;;;24.96;38.48
32735;BME280;19112;51.076;3.706;2023-07-02T10:06:53;101052.91;;;24.72;38.88
32735;BME280;19112;51.076;3.706;2023-07-02T10:09:21;100889.22;;;23.86;37.62
32735;BME280;19112;51.076;3.706;2023-07-02T10:11:59;100886.66;;;24.21;38.37
32735;BME280;19112;51.076;3.706;2023-07-02T10:14:25;101051.38;;;25.38;38.71
32735;BME280;19112;51.076;3.706;2023-07-02T10:16:53;101126.69;;;25.75;36.95
32735;BME280;19112;51.076;3.706;2023-07-02T10:19:19;101126.03;;;25.64;37.65
32735;BME280;19112;51.076;3.706;2023-07-02T10:21:47;101140.69;;;25.51;37.82
32735;BME280;19112;51.076;3.706;2023-07-02T10:24:25;100915.50;;;24.12;37.69
32735;BME280;19112;51.076;3.706;2023-07-02T10:27:01;101131.06;;;25.42;37.49
32735;BME280;19112;51.076;3.706;2023-07-02T10:29:29;101147.63;;;25.22;37.43
32735;BME280;19112;51.076;3.706;2023-07-02T10:31:56;100680.09;;;22.57;38.62
32735;BME280;19112;51.076;3.706;2023-07-02T10:34:34;101058.50;;;24.62;40.13
32735;BME280;19112;51.076;3.706;2023-07-02T10:37:01;101130.09;;;25.04;38.18
32735;BME280;19112;51.076;3.706;2023-07-02T10:39:31;101134.25;;;24.77;38.79
32735;BME280;19112;51.076;3.706;2023-07-02T10:42:08;101125.25;;;24.80;39.46
32735;BME280;19112;51.076;3.706;2023-07-02T10:44:51;101140.75;;;25.11;38.07
32735;BME280;19112;51.076;3.706;2023-07-02T10:47:18;101129.72;;;25.23;36.75
32735;BME280;19112;51.076;3.706;2023-07-02T10:49:45;101127.41;;;25.06;37.53
32735;BME280;19112;51.076;3.706;2023-07-02T10:52:11;101126.38;;;25.12;37.93
32735;BME280;19112;51.076;3.706;2023-07-02T10:54:45;101010.50;;;24.46;38.36
32735;BME280;19112;51.076;3.706;2023-07-02T10:57:14;101120.84;;;25.18;37.71
32735;BME280;19112;51.076;3.706;2023-07-02T10:59:41;101118.78;;;25.30;39.30
32735;BME280;19112;51.076;3.706;2023-07-02T11:02:08;101121.75;;;25.55;38.18
32735;BME280;19112;51.076;3.706;2023-07-02T11:04:36;101075.78;;;25.66;39.11
32735;BME280;19112;51.076;3.706;2023-07-02T11:07:04;100928.03;;;24.90;38.11
32735;BME280;19112;51.076;3.706;2023-07-02T11:09:30;101048.75;;;24.96;36.29
32735;BME280;19112;51.076;3.706;2023-07-02T11:11:59;101129.56;;;25.29;37.32
32735;BME280;19112;51.076;3.706;2023-07-02T11:14:36;100811.69;;;23.75;37.70
32735;BME280;19112;51.076;3.706;2023-07-02T11:17:05;101038.06;;;25.33;37.67
32735;BME280;19112;51.076;3.706;2023-07-02T11:19:35;101132.94;;;26.11;37.17
32735;BME280;19112;51.076;3.706;2023-07-02T11:22:01;101131.59;;;25.94;36.41
32735;BME280;19112;51.076;3.706;2023-07-02T11:24:36;101053.25;;;25.34;36.08
32735;BME280;19112;51.076;3.706;2023-07-02T11:27:05;101090.97;;;25.31;36.88
32735;BME280;19112;51.076;3.706;2023-07-02T11:29:33;101053.41;;;25.28;36.86
32735;BME280;19112;51.076;3.706;2023-07-02T11:32:12;101100.84;;;25.67;36.55
32735;BME280;19112;51.076;3.706;2023-07-02T11:34:40;100914.00;;;24.79;35.94
32735;BME280;19112;51.076;3.706;2023-07-02T11:37:06;100870.53;;;24.97;36.54
32735;BME280;19112;51.076;3.706;2023-07-02T11:39:32;101128.16;;;26.55;34.49
32735;BME280;19112;51.076;3.706;2023-07-02T11:41:58;100934.44;;;25.54;35.28
32735;BME280;19112;51.076;3.706;2023-07-02T11:44:24;101067.63;;;26.03;35.41
32735;BME280;19112;51.076;3.706;2023-07-02T11:46:50;101088.34;;;26.01;35.43
32735;BME280;19112;51.076;3.706;2023-07-02T11:49:16;101056.06;;;25.66;35.34
32735;BME280;19112;51.076;3.706;2023-07-02T11:51:43;101077.63;;;26.32;35.91
32735;BME280;19112;51.076;3.706;2023-07-02T11:54:16;101048.19;;;26.25;34.54
32735;BME280;19112;51.076;3.706;2023-07-02T11:56:44;101122.44;;;26.66;34.37
32735;BME280;19112;51.076;3.706;2023-07-02T11:59:09;100865.97;;;25.35;34.21
32735;BME280;19112;51.076;3.706;2023-07-02T12:01:39;100882.72;;;25.45;34.45
32735;BME280;19112;51.076;3.706;2023-07-02T12:04:05;101114.44;;;26.63;35.09
32735;BME280;19112;51.076;3.706;2023-07-02T12:06:33;101119.25;;;26.53;35.41
32735;BME280;19112;51.076;3.706;2023-07-02T12:08:59;101111.31;;;26.47;36.26
32735;BME280;19112;51.076;3.706;2023-07-02T12:11:25;101112.28;;;26.45;35.76
32735;BME280;19112;51.076;3.706;2023-07-02T12:13:51;100825.72;;;24.99;37.07
32735;BME280;19112;51.076;3.706;2023-07-02T12:16:17;101097.44;;;26.92;37.10
32735;BME280;19112;51.076;3.706;2023-07-02T12:18:43;100876.38;;;25.80;36.46
32735;BME280;19112;51.076;3.706;2023-07-02T12:21:09;100603.53;;;24.07;35.77
32735;BME280;19112;51.076;3.706;2023-07-02T12:23:35;100891.34;;;25.57;34.67
32735;BME280;19112;51.076;3.706;2023-07-02T12:26:00;101107.91;;;26.72;35.64
32735;BME280;19112;51.076;3.706;2023-07-02T12:28:26;101102.16;;;26.22;35.39
32735;BME280;19112;51.076;3.706;2023-07-02T12:30:53;101101.97;;;26.28;33.99
32735;BME280;19112;51.076;3.706;2023-07-02T12:33:19;101106.03;;;26.44;34.19
32735;BME280;19112;51.076;3.706;2023-07-02T12:35:45;101103.47;;;26.71;34.66
32735;BME280;19112;51.076;3.706;2023-07-02T12:38:11;100875.34;;;25.53;34.60
32735;BME280;19112;51.076;3.706;2023-07-02T12:40:37;101099.41;;;26.56;34.56
32735;BME280;19112;51.076;3.706;2023-07-02T12:43:03;100935.88;;;26.00;35.17
32735;BME280;19112;51.076;3.706;2023-07-02T12:45:29;101105.13;;;27.34;35.61
32735;BME280;19112;51.076;3.706;2023-07-02T12:47:55;100953.63;;;26.67;34.50
32735;BME280;19112;51.076;3.706;2023-07-02T12:50:20;101102.47;;;27.60;33.68
32735;BME280;19112;51.076;3.706;2023-07-02T12:52:46;101100.88;;;27.53;32.97